Time;durP1;ratioP1;P1;durP2;ratioP2;P2;SDS_P1;SDS_P2;PMS_P1;PMS_P2;Temp;Humidity;BMP_temperature;BMP_pressure;BME280_temperature;BME280_humidity;BME280_pressure;Samples;Min_cycle;Max_cycle;Signal;HPM_P1;HPM_P2
2022/05/31 00:01:48;;;;;;;1.98;1.25;;;7.60;99.90;;;;;;5052050;28;20029;-74
2022/05/31 00:04:15;;;;;;;1.17;1.08;;;7.40;99.90;;;;;;5039764;28;20504;-74
2022/05/31 00:06:43;;;;;;;0.93;0.93;;;7.30;99.90;;;;;;5043287;28;20036;-74
2022/05/31 00:09:09;;;;;;;1.27;1.10;;;7.20;99.90;;;;;;5040674;28;20029;-74
2022/05/31 00:11:36;;;;;;;1.17;1.08;;;7.10;99.90;;;;;;5038149;28;20041;-73
2022/05/31 00:14:04;;;;;;;0.75;0.70;;;7.10;99.90;;;;;;5035128;28;20036;-74
2022/05/31 00:16:31;;;;;;;1.75;1.17;;;7.00;99.90;;;;;;5034841;28;20032;-74
2022/05/31 00:18:57;;;;;;;1.75;1.20;;;7.00;99.90;;;;;;5033250;28;20387;-74
2022/05/31 00:21:36;;;;;;;1.63;1.20;;;7.10;99.90;;;;;;5035066;28;20041;-75
2022/05/31 00:24:03;;;;;;;0.75;0.70;;;7.20;99.90;;;;;;5034974;28;20034;-74
2022/05/31 00:26:29;;;;;;;1.20;0.90;;;7.10;99.90;;;;;;5034494;28;20033;-74
2022/05/31 00:28:55;;;;;;;1.40;1.10;;;7.00;99.90;;;;;;5033363;28;20395;-74
2022/05/31 00:31:21;;;;;;;1.15;0.95;;;6.90;99.90;;;;;;5051225;28;20479;-74
2022/05/31 00:33:48;;;;;;;1.95;1.45;;;6.90;99.90;;;;;;5047607;28;20502;-74
2022/05/31 00:36:14;;;;;;;1.45;1.05;;;6.90;99.90;;;;;;5046218;28;20352;-74
2022/05/31 00:38:40;;;;;;;2.05;1.63;;;6.80;99.90;;;;;;5032658;28;20034;-75
2022/05/31 00:41:23;;;;;;;2.28;1.60;;;6.70;99.90;;;;;;5034258;28;20042;-74
2022/05/31 00:43:57;;;;;;;1.65;1.23;;;6.80;99.90;;;;;;5034329;28;20483;-74
2022/05/31 00:46:37;;;;;;;2.25;1.38;;;6.90;99.90;;;;;;5041329;28;20041;-74
2022/05/31 00:49:06;;;;;;;1.55;0.80;;;6.70;99.90;;;;;;5032814;28;20029;-74
2022/05/31 00:51:48;;;;;;;4.13;0.93;;;6.60;99.90;;;;;;5033780;28;20041;-75
2022/05/31 00:54:17;;;;;;;0.73;0.70;;;6.50;99.90;;;;;;5033934;28;20049;-74
2022/05/31 00:56:46;;;;;;;1.45;1.30;;;6.50;99.90;;;;;;5031489;28;20057;-73
2022/05/31 00:59:27;;;;;;;1.67;1.58;;;6.40;99.90;;;;;;5037117;28;20036;-73
2022/05/31 01:01:57;;;;;;;4.35;1.58;;;6.40;99.90;;;;;;5034042;28;20041;-73
2022/05/31 01:04:40;;;;;;;2.45;1.35;;;6.60;99.90;;;;;;5033259;28;20049;-74
2022/05/31 01:07:06;;;;;;;1.55;1.02;;;6.80;99.90;;;;;;5033905;28;20396;-74
2022/05/31 01:09:33;;;;;;;1.77;1.35;;;6.90;99.90;;;;;;5032954;28;20367;-74
2022/05/31 01:12:19;;;;;;;1.48;1.23;;;7.00;99.90;;;;;;5033490;28;20049;-74
2022/05/31 01:15:06;;;;;;;2.47;1.55;;;7.10;99.90;;;;;;5034851;28;20046;-73
2022/05/31 01:17:51;;;;;;;2.50;1.88;;;7.30;99.90;;;;;;5039080;28;20045;-73
2022/05/31 01:20:23;;;;;;;5.65;1.48;;;7.40;99.90;;;;;;5040667;28;20029;-74
2022/05/31 01:22:59;;;;;;;1.90;1.33;;;7.70;99.90;;;;;;5035132;28;20479;-73
2022/05/31 01:25:49;;;;;;;1.25;1.10;;;7.80;99.90;;;;;;5043567;28;20046;-73
2022/05/31 01:28:34;;;;;;;1.70;1.27;;;7.90;99.90;;;;;;5047504;28;20045;-74
2022/05/31 01:31:15;;;;;;;1.83;1.13;;;7.80;99.90;;;;;;5033431;28;20034;-74
2022/05/31 01:33:57;;;;;;;1.65;1.38;;;7.60;99.90;;;;;;5043955;28;20064;-73
2022/05/31 01:36:32;;;;;;;3.58;1.98;;;7.60;99.90;;;;;;5033332;28;20038;-73
2022/05/31 01:39:05;;;;;;;1.40;1.23;;;7.50;99.90;;;;;;5057285;28;20041;-73
2022/05/31 01:41:42;;;;;;;2.28;2.00;;;7.40;99.90;;;;;;5032727;28;20049;-74
2022/05/31 01:44:16;;;;;;;1.45;1.35;;;7.30;99.90;;;;;;5033279;28;20037;-74
2022/05/31 01:46:43;;;;;;;1.92;1.20;;;7.30;99.90;;;;;;5032987;28;20025;-74
2022/05/31 01:49:13;;;;;;;1.77;1.35;;;7.10;99.90;;;;;;5030377;28;20025;-74
2022/05/31 01:51:41;;;;;;;1.95;1.67;;;7.10;99.90;;;;;;5033438;28;20033;-75
2022/05/31 01:54:10;;;;;;;2.55;1.90;;;7.10;99.90;;;;;;5033428;28;20064;-75
2022/05/31 01:56:40;;;;;;;2.10;1.88;;;7.10;99.90;;;;;;5037166;28;20041;-74
2022/05/31 01:59:07;;;;;;;3.75;1.83;;;7.20;99.90;;;;;;5035186;28;20056;-74
2022/05/31 02:01:35;;;;;;;1.95;1.27;;;7.20;99.90;;;;;;5040469;28;20048;-74
2022/05/31 02:04:03;;;;;;;5.90;1.88;;;7.10;99.90;;;;;;5041204;28;20046;-74
2022/05/31 02:06:34;;;;;;;2.13;1.65;;;7.00;99.90;;;;;;5039927;28;20064;-75
2022/05/31 02:09:02;;;;;;;1.42;1.33;;;7.00;99.90;;;;;;5034059;28;20048;-75
2022/05/31 02:11:29;;;;;;;3.45;2.22;;;7.00;99.90;;;;;;5032123;28;20483;-75
2022/05/31 02:14:03;;;;;;;4.20;1.92;;;7.20;99.90;;;;;;5034086;28;20041;-75
2022/05/31 02:16:29;;;;;;;2.97;1.85;;;7.20;99.90;;;;;;5032497;28;20398;-75
2022/05/31 02:19:23;;;;;;;2.50;1.58;;;7.10;99.90;;;;;;5031394;28;20029;-75
2022/05/31 02:22:27;;;;;;;2.50;1.70;;;6.90;99.90;;;;;;5027209;28;20403;-73
2022/05/31 02:24:54;;;;;;;2.83;2.20;;;6.80;99.90;;;;;;5030938;28;20042;-73
2022/05/31 02:27:21;;;;;;;2.35;2.15;;;6.70;99.90;;;;;;5052382;28;20049;-73
2022/05/31 02:29:48;;;;;;;1.63;1.52;;;6.70;99.90;;;;;;5031287;28;20042;-73
2022/05/31 02:32:15;;;;;;;2.55;2.00;;;6.80;99.90;;;;;;5034675;28;20037;-74
2022/05/31 02:34:46;;;;;;;2.20;1.73;;;6.90;99.90;;;;;;5037842;28;20041;-73
2022/05/31 02:37:15;;;;;;;2.03;1.40;;;6.90;99.90;;;;;;5037533;28;20041;-74
2022/05/31 02:39:42;;;;;;;1.90;1.52;;;6.80;99.90;;;;;;5034136;28;20044;-74
2022/05/31 02:42:09;;;;;;;2.75;1.73;;;6.50;99.90;;;;;;5032628;28;20053;-74
2022/05/31 02:44:36;;;;;;;3.47;2.10;;;6.40;99.90;;;;;;5031879;28;20038;-74
2022/05/31 02:47:04;;;;;;;4.25;2.33;;;6.30;99.90;;;;;;5031603;28;20048;-75
2022/05/31 02:49:30;;;;;;;2.53;1.88;;;6.20;99.90;;;;;;5030426;28;20048;-75
2022/05/31 02:51:59;;;;;;;2.35;2.08;;;6.30;99.90;;;;;;5032871;28;20045;-74
2022/05/31 02:54:27;;;;;;;10.85;2.40;;;6.30;99.90;;;;;;5032052;28;20045;-75
2022/05/31 02:57:19;;;;;;;3.17;2.35;;;6.40;99.90;;;;;;5023712;28;20064;-75
2022/05/31 03:00:06;;;;;;;3.85;2.15;;;6.50;99.90;;;;;;5038798;28;20048;-75
2022/05/31 03:02:50;;;;;;;2.78;2.20;;;6.50;99.90;;;;;;5039011;28;20045;-75
2022/05/31 03:05:19;;;;;;;3.55;1.83;;;6.60;99.90;;;;;;5034370;28;20056;-75
2022/05/31 03:08:05;;;;;;;2.95;2.08;;;6.60;99.90;;;;;;5028864;28;20501;-76
2022/05/31 03:10:45;;;;;;;3.53;2.10;;;6.60;99.90;;;;;;5035460;28;20398;-75
2022/05/31 03:13:15;;;;;;;6.00;2.53;;;6.60;99.90;;;;;;5032404;28;20038;-76
2022/05/31 03:15:43;;;;;;;9.45;2.08;;;6.70;99.90;;;;;;5032034;28;20044;-75
2022/05/31 03:18:15;;;;;;;2.75;2.15;;;6.80;99.90;;;;;;5031043;28;20410;-75
2022/05/31 03:20:48;;;;;;;2.60;1.58;;;6.80;99.90;;;;;;5034652;28;20045;-75
2022/05/31 03:23:23;;;;;;;2.80;2.33;;;6.80;99.90;;;;;;5036050;28;20493;-75
2022/05/31 03:25:50;;;;;;;5.05;2.90;;;6.70;99.90;;;;;;5035885;28;20033;-75
2022/05/31 03:28:18;;;;;;;4.20;2.42;;;6.60;99.90;;;;;;5034559;28;20029;-75
2022/05/31 03:30:45;;;;;;;2.08;1.95;;;6.60;99.90;;;;;;5035464;28;20352;-74
2022/05/31 03:33:11;;;;;;;2.92;2.63;;;6.60;99.90;;;;;;5035608;28;20467;-75
2022/05/31 03:35:39;;;;;;;2.92;2.17;;;6.60;99.90;;;;;;5043522;28;20048;-75
2022/05/31 03:38:13;;;;;;;1.92;1.80;;;6.60;99.90;;;;;;5036131;28;20045;-75
2022/05/31 03:41:01;;;;;;;9.25;2.60;;;6.70;99.90;;;;;;5064282;28;20049;-75
2022/05/31 03:43:44;;;;;;;3.40;2.47;;;6.70;99.90;;;;;;5041948;28;20509;-72
2022/05/31 03:46:22;;;;;;;2.63;2.28;;;6.70;99.90;;;;;;5045109;28;20049;-72
2022/05/31 03:49:01;;;;;;;4.13;2.47;;;6.70;99.90;;;;;;5040110;28;20033;-73
2022/05/31 03:51:47;;;;;;;2.85;2.05;;;6.80;99.90;;;;;;5036698;28;20139;-72
2022/05/31 03:54:37;;;;;;;2.05;1.85;;;6.80;99.90;;;;;;5034805;28;20072;-72
2022/05/31 03:57:18;;;;;;;4.20;2.88;;;7.00;99.90;;;;;;5041747;28;20560;-72
2022/05/31 03:59:51;;;;;;;3.35;2.58;;;7.10;99.90;;;;;;5036325;28;20037;-73
2022/05/31 04:02:20;;;;;;;2.42;1.90;;;7.20;99.90;;;;;;5039077;28;20033;-73
2022/05/31 04:04:46;;;;;;;3.60;3.10;;;7.30;99.90;;;;;;5045241;28;20050;-73
2022/05/31 04:07:12;;;;;;;2.38;2.17;;;7.50;99.90;;;;;;5049120;28;20037;-73
2022/05/31 04:09:39;;;;;;;4.55;1.98;;;7.60;99.90;;;;;;5049016;28;20041;-72
2022/05/31 04:12:09;;;;;;;2.10;1.75;;;7.70;99.90;;;;;;5041791;28;20057;-73
2022/05/31 04:15:14;;;;;;;2.22;2.03;;;7.80;99.90;;;;;;5034176;28;20053;-74
2022/05/31 04:17:40;;;;;;;4.53;2.20;;;8.00;99.90;;;;;;5032874;28;20060;-74
2022/05/31 04:20:08;;;;;;;3.30;2.00;;;8.00;99.90;;;;;;5056171;28;20048;-74
2022/05/31 04:22:34;;;;;;;2.25;1.88;;;8.20;99.90;;;;;;5043196;28;20033;-75
2022/05/31 04:25:20;;;;;;;4.00;1.80;;;8.60;99.90;;;;;;5034617;28;20038;-74
2022/05/31 04:28:18;;;;;;;1.60;1.30;;;9.30;99.90;;;;;;5033955;28;20048;-74
2022/05/31 04:31:13;;;;;;;2.50;1.58;;;9.30;99.90;;;;;;5034751;28;20060;-78
2022/05/31 04:34:11;;;;;;;3.97;1.80;;;10.00;99.90;;;;;;5057646;28;20052;-76
2022/05/31 04:36:37;;;;;;;7.40;1.67;;;11.00;99.90;;;;;;5038304;28;20041;-75
2022/05/31 04:39:04;;;;;;;1.73;1.25;;;11.90;97.40;;;;;;5033108;28;20046;-74
2022/05/31 04:41:33;;;;;;;2.13;1.08;;;12.60;95.00;;;;;;5062061;28;20045;-73
2022/05/31 04:44:09;;;;;;;1.50;1.33;;;12.90;92.00;;;;;;5036591;28;20397;-74
2022/05/31 04:46:39;;;;;;;2.35;1.48;;;13.70;91.10;;;;;;5060945;28;20065;-74
2022/05/31 04:49:11;;;;;;;2.28;1.25;;;15.20;82.00;;;;;;5031778;28;20037;-74
2022/05/31 04:51:38;;;;;;;1.80;1.33;;;16.10;76.20;;;;;;5034732;28;20052;-74
2022/05/31 04:54:07;;;;;;;2.35;1.30;;;15.70;70.90;;;;;;5060866;28;20049;-73
2022/05/31 04:56:45;;;;;;;1.80;1.65;;;14.30;76.80;;;;;;5048969;28;20467;-74
2022/05/31 04:59:12;;;;;;;6.00;1.30;;;14.30;79.50;;;;;;5039156;28;20041;-75
2022/05/31 05:01:40;;;;;;;2.97;1.42;;;13.90;78.30;;;;;;5033022;28;20394;-75
2022/05/31 05:04:12;;;;;;;1.45;1.02;;;13.10;83.40;;;;;;5039297;28;20399;-77
2022/05/31 05:06:51;;;;;;;1.33;1.00;;;13.00;87.00;;;;;;5037922;28;20045;-76
2022/05/31 05:09:20;;;;;;;3.67;1.33;;;13.50;85.70;;;;;;5036177;28;20033;-76
2022/05/31 05:12:05;;;;;;;1.42;0.85;;;14.00;82.10;;;;;;5039462;28;20054;-76
2022/05/31 05:14:36;;;;;;;1.05;0.73;;;13.80;82.40;;;;;;5048704;28;20491;-76
2022/05/31 05:17:06;;;;;;;1.92;1.00;;;12.90;88.20;;;;;;5031450;28;20388;-75
2022/05/31 05:19:38;;;;;;;3.40;1.58;;;13.50;86.00;;;;;;5031450;28;20049;-76
2022/05/31 05:22:05;;;;;;;0.70;0.63;;;12.70;88.20;;;;;;5032261;28;20061;-75
2022/05/31 05:24:32;;;;;;;2.75;1.52;;;11.90;92.30;;;;;;5032398;28;20068;-75
2022/05/31 05:27:24;;;;;;;1.52;1.15;;;11.70;94.20;;;;;;5034863;28;20044;-75
2022/05/31 05:33:05;;;;;;;2.00;1.08;;;14.90;85.10;;;;;;5043517;28;20049;-74
2022/05/31 05:35:34;;;;;;;2.17;1.50;;;15.60;75.80;;;;;;5040242;28;20053;-75
2022/05/31 05:38:10;;;;;;;1.38;0.85;;;14.70;78.80;;;;;;5048054;28;20017;-75
2022/05/31 05:40:56;;;;;;;2.28;1.52;;;13.30;84.50;;;;;;5032734;28;20382;-76
2022/05/31 05:43:32;;;;;;;2.42;1.38;;;12.70;90.90;;;;;;5057055;28;20041;-75
2022/05/31 05:46:02;;;;;;;1.17;1.13;;;12.60;93.20;;;;;;5050396;28;20041;-75
2022/05/31 05:48:28;;;;;;;2.03;1.67;;;12.60;92.50;;;;;;5048855;28;20036;-74
2022/05/31 05:50:54;;;;;;;3.60;1.75;;;12.50;93.10;;;;;;5057838;28;20037;-74
2022/05/31 05:53:39;;;;;;;2.13;1.50;;;13.20;92.30;;;;;;5038830;28;20048;-74
2022/05/31 05:56:31;;;;;;;2.67;1.92;;;13.50;90.70;;;;;;5033635;28;20037;-74
2022/05/31 05:59:30;;;;;;;2.15;1.60;;;14.10;89.50;;;;;;5035883;28;20047;-73
2022/05/31 06:02:21;;;;;;;2.25;0.95;;;14.90;85.00;;;;;;5039456;28;20387;-73
2022/05/31 06:05:16;;;;;;;6.03;1.27;;;15.50;79.20;;;;;;5031148;28;20509;-74
2022/05/31 06:07:50;;;;;;;1.33;0.95;;;15.90;76.60;;;;;;5057414;28;20044;-73
2022/05/31 06:10:29;;;;;;;2.05;1.35;;;15.80;76.20;;;;;;5050642;28;20032;-74
2022/05/31 06:13:06;;;;;;;6.93;1.52;;;14.60;77.50;;;;;;5032700;28;20033;-74
2022/05/31 06:15:35;;;;;;;1.33;1.23;;;14.20;81.70;;;;;;5049045;28;20042;-72
2022/05/31 06:18:09;;;;;;;1.85;1.00;;;14.10;83.40;;;;;;5039361;28;20052;-73
2022/05/31 06:20:36;;;;;;;2.38;1.95;;;14.10;84.60;;;;;;5037559;28;20395;-73
2022/05/31 06:23:02;;;;;;;1.88;1.48;;;13.90;86.00;;;;;;5037307;28;20044;-73
2022/05/31 06:25:29;;;;;;;2.15;1.60;;;13.70;87.50;;;;;;5050414;28;20048;-73
2022/05/31 06:28:18;;;;;;;2.90;1.65;;;13.60;88.70;;;;;;5053208;28;20422;-72
2022/05/31 06:30:44;;;;;;;2.17;1.77;;;13.80;87.80;;;;;;5038305;28;20399;-72
2022/05/31 06:33:11;;;;;;;5.60;1.75;;;14.00;86.50;;;;;;5032639;28;20037;-73
2022/05/31 06:35:39;;;;;;;1.70;1.23;;;14.10;87.00;;;;;;5033841;28;20056;-73
2022/05/31 06:38:07;;;;;;;2.55;1.42;;;14.50;85.20;;;;;;5033309;28;20049;-73
2022/05/31 06:40:34;;;;;;;1.48;1.23;;;14.60;83.00;;;;;;5038205;28;20060;-74
2022/05/31 06:43:19;;;;;;;2.75;1.52;;;15.20;82.00;;;;;;5032706;28;20038;-73
2022/05/31 06:46:09;;;;;;;2.08;1.23;;;15.70;78.90;;;;;;5038013;28;20530;-73
2022/05/31 06:48:53;;;;;;;1.20;0.98;;;15.70;77.10;;;;;;5030641;28;20045;-73
2022/05/31 06:57:48;;;;;;;11.38;1.60;;;16.20;76.30;;;;;;5034846;28;20037;-73
2022/05/31 07:00:33;;;;;;;1.35;1.15;;;16.60;73.50;;;;;;5049522;28;20044;-74
2022/05/31 07:03:00;;;;;;;9.77;1.50;;;16.80;74.40;;;;;;5043630;28;20517;-72
2022/05/31 07:05:34;;;;;;;2.05;1.15;;;17.10;71.50;;;;;;5035649;28;20045;-76
2022/05/31 07:08:01;;;;;;;1.50;1.15;;;18.20;71.10;;;;;;5034109;28;20387;-77
2022/05/31 07:10:46;;;;;;;1.42;0.93;;;20.00;63.60;;;;;;5049249;28;20050;-75
2022/05/31 07:13:20;;;;;;;1.10;0.80;;;19.20;61.90;;;;;;5036366;28;20044;-75
2022/05/31 07:16:05;;;;;;;2.00;1.35;;;19.30;60.20;;;;;;5035898;28;20038;-74
2022/05/31 07:18:50;;;;;;;1.98;0.98;;;18.90;59.20;;;;;;5036267;28;20032;-73
2022/05/31 07:21:16;;;;;;;2.67;1.15;;;19.60;59.00;;;;;;5041981;28;20036;-73
2022/05/31 07:23:43;;;;;;;1.88;1.05;;;18.90;60.70;;;;;;5036068;28;20048;-73
2022/05/31 07:26:12;;;;;;;2.13;0.93;;;19.00;60.10;;;;;;5035324;28;20040;-73
2022/05/31 07:28:38;;;;;;;0.75;0.65;;;19.40;58.30;;;;;;5064336;28;20044;-73
2022/05/31 07:31:06;;;;;;;1.50;0.80;;;19.70;57.60;;;;;;5039389;28;20509;-73
2022/05/31 07:33:38;;;;;;;0.80;0.60;;;21.60;56.70;;;;;;5047424;28;20037;-74
2022/05/31 07:36:07;;;;;;;1.15;0.63;;;22.00;52.80;;;;;;5045223;28;20378;-74
2022/05/31 07:38:43;;;;;;;1.05;0.70;;;21.10;52.90;;;;;;5032257;28;20491;-74
2022/05/31 07:41:10;;;;;;;6.57;1.10;;;19.80;55.40;;;;;;5052995;28;20056;-75
2022/05/31 07:43:37;;;;;;;0.93;0.82;;;19.20;56.60;;;;;;5033939;28;20041;-74
2022/05/31 07:46:10;;;;;;;1.50;1.10;;;18.90;57.30;;;;;;5066274;28;20045;-74
2022/05/31 07:48:38;;;;;;;3.40;1.10;;;18.30;57.60;;;;;;5034446;28;20052;-73
2022/05/31 07:51:25;;;;;;;3.10;0.98;;;17.30;60.60;;;;;;5035446;28;20029;-74
2022/05/31 07:54:24;;;;;;;1.05;0.85;;;17.30;62.20;;;;;;5035440;28;20052;-74
2022/05/31 08:00:17;;;;;;;1.65;1.20;;;17.90;60.20;;;;;;5032334;28;20529;-74
2022/05/31 08:02:46;;;;;;;6.33;0.90;;;16.90;61.30;;;;;;5039460;28;20047;-73
2022/05/31 08:05:13;;;;;;;1.30;1.00;;;16.90;64.30;;;;;;5053028;28;20041;-72
2022/05/31 08:07:39;;;;;;;1.85;1.00;;;17.90;60.10;;;;;;5045401;28;20050;-74
2022/05/31 08:10:09;;;;;;;4.00;1.02;;;18.20;59.80;;;;;;5034801;28;20029;-73
2022/05/31 08:12:35;;;;;;;;;;;18.30;59.00;;;;;;5035307;28;20033;-73
2022/05/31 08:15:04;;;;;;;1.70;0.93;;;18.70;57.20;;;;;;5034745;28;20373;-73
2022/05/31 08:17:30;;;;;;;1.17;0.88;;;18.50;58.20;;;;;;5033212;28;20072;-74
2022/05/31 08:19:56;;;;;;;1.63;1.05;;;18.00;58.40;;;;;;5034505;28;20485;-73
2022/05/31 08:22:23;;;;;;;2.35;1.17;;;18.10;58.50;;;;;;5035009;28;20052;-73
2022/05/31 08:24:49;;;;;;;1.10;0.80;;;18.60;57.80;;;;;;5043562;28;20032;-72
2022/05/31 08:27:15;;;;;;;2.00;1.42;;;19.70;55.80;;;;;;5032143;28;20502;-73
2022/05/31 08:29:42;;;;;;;1.40;1.05;;;18.90;56.20;;;;;;5042718;28;20035;-74
2022/05/31 08:32:08;;;;;;;1.48;0.73;;;19.70;55.40;;;;;;5045144;28;20052;-74
2022/05/31 08:34:34;;;;;;;1.35;1.17;;;20.90;55.00;;;;;;5051351;28;20045;-72
2022/05/31 08:37:01;;;;;;;2.08;1.02;;;21.40;54.50;;;;;;5037410;28;20048;-73
2022/05/31 08:39:27;;;;;;;2.47;1.05;;;22.50;52.50;;;;;;5034792;28;20034;-73
2022/05/31 08:42:12;;;;;;;2.22;1.25;;;22.40;51.20;;;;;;5034250;28;20033;-73
2022/05/31 08:44:56;;;;;;;2.10;1.02;;;21.50;51.60;;;;;;5050134;28;20402;-73
2022/05/31 08:47:44;;;;;;;3.47;0.88;;;20.80;51.40;;;;;;5042371;28;20040;-73
2022/05/31 08:53:29;;;;;;;1.67;0.82;;;19.60;53.20;;;;;;5035170;28;20042;-73
2022/05/31 08:59:01;;;;;;;2.08;1.40;;;20.80;51.90;;;;;;5047297;28;20045;-73
2022/05/31 09:01:33;;;;;;;2.20;1.30;;;21.40;49.70;;;;;;5034004;28;20025;-73
2022/05/31 09:04:03;;;;;;;2.13;1.23;;;21.80;49.30;;;;;;5042029;28;20037;-72
2022/05/31 09:06:47;;;;;;;2.38;1.55;;;21.90;49.60;;;;;;5039747;28;20032;-73
2022/05/31 09:09:32;;;;;;;3.22;1.50;;;21.20;51.00;;;;;;5036869;28;20033;-72
2022/05/31 09:12:10;;;;;;;4.03;2.20;;;23.00;50.50;;;;;;5041113;28;20041;-72
2022/05/31 09:14:49;;;;;;;4.03;2.05;;;24.40;46.00;;;;;;5036456;28;20045;-72
2022/05/31 09:17:45;;;;;;;9.75;2.13;;;24.20;46.50;;;;;;5031355;28;20033;-73
2022/05/31 09:20:15;;;;;;;2.75;1.90;;;22.80;47.20;;;;;;5033276;28;20034;-73
2022/05/31 09:22:44;;;;;;;5.15;1.98;;;22.50;48.60;;;;;;5033213;28;20041;-73
2022/05/31 09:25:12;;;;;;;2.97;1.95;;;22.70;48.60;;;;;;5033689;28;20475;-73
2022/05/31 09:27:49;;;;;;;4.55;2.08;;;21.80;48.30;;;;;;5032084;28;20030;-72
2022/05/31 09:30:24;;;;;;;3.30;2.10;;;21.50;49.60;;;;;;5050638;28;20044;-72
2022/05/31 09:33:09;;;;;;;4.43;2.30;;;21.80;49.20;;;;;;5039399;28;20044;-73
2022/05/31 09:36:15;;;;;;;4.35;2.50;;;21.90;49.40;;;;;;5047708;28;20398;-73
2022/05/31 09:39:12;;;;;;;2.67;2.13;;;21.50;50.30;;;;;;5031153;28;20034;-72
2022/05/31 09:41:51;;;;;;;3.47;2.67;;;20.10;51.60;;;;;;5034014;28;20050;-72
2022/05/31 09:44:38;;;;;;;7.25;2.78;;;20.90;51.60;;;;;;5035012;28;20037;-72
2022/05/31 09:47:10;;;;;;;2.22;1.90;;;21.00;49.70;;;;;;5046967;28;20486;-72
2022/05/31 09:49:43;;;;;;;5.25;2.03;;;21.50;50.40;;;;;;5032386;28;20410;-73
2022/05/31 09:52:20;;;;;;;2.55;1.80;;;21.10;50.80;;;;;;5033162;28;20486;-72
2022/05/31 09:58:38;;;;;;;2.53;1.80;;;21.70;49.40;;;;;;5031012;28;20048;-73
2022/05/31 10:01:29;;;;;;;3.03;1.23;;;22.80;48.30;;;;;;5040027;28;20052;-74
2022/05/31 10:04:29;;;;;;;4.47;2.03;;;23.10;46.90;;;;;;5039864;28;20037;-74
2022/05/31 10:06:59;;;;;;;8.35;2.28;;;22.60;45.80;;;;;;5043205;28;20446;-74
2022/05/31 10:09:45;;;;;;;2.80;1.67;;;22.50;47.20;;;;;;5037979;28;20037;-74
2022/05/31 10:12:31;;;;;;;6.72;2.10;;;22.10;47.80;;;;;;5036479;28;20056;-74
2022/05/31 10:15:03;;;;;;;2.40;1.13;;;21.90;48.50;;;;;;5032561;28;20036;-74
2022/05/31 10:17:43;;;;;;;1.45;1.20;;;22.20;48.30;;;;;;5031504;28;20482;-74
2022/05/31 10:20:25;;;;;;;2.22;1.85;;;22.50;48.80;;;;;;5032381;28;20041;-74
2022/05/31 10:22:56;;;;;;;7.15;1.55;;;22.30;48.10;;;;;;5041190;28;20502;-74
2022/05/31 10:25:41;;;;;;;;;;;21.80;48.20;;;;;;5039993;28;20041;-74
2022/05/31 10:28:40;;;;;;;3.38;2.63;;;21.70;49.20;;;;;;5040866;28;19932;-74
2022/05/31 10:31:33;;;;;;;2.92;1.92;;;22.00;48.90;;;;;;5043272;28;20390;-74
2022/05/31 10:34:05;;;;;;;3.22;1.35;;;21.30;48.00;;;;;;5049811;28;20041;-73
2022/05/31 10:36:53;;;;;;;1.25;1.13;;;21.40;48.10;;;;;;5039780;28;20038;-74
2022/05/31 10:39:24;;;;;;;5.15;1.35;;;21.50;48.70;;;;;;5057586;28;20021;-74
2022/05/31 10:41:54;;;;;;;1.70;1.38;;;22.00;48.00;;;;;;5049338;28;20044;-74
2022/05/31 10:44:36;;;;;;;2.40;1.88;;;21.50;47.20;;;;;;5039613;28;20045;-73
2022/05/31 10:47:14;;;;;;;4.57;1.38;;;21.20;48.10;;;;;;5035486;28;20033;-74
2022/05/31 10:49:43;;;;;;;2.33;1.30;;;20.80;48.40;;;;;;5041290;28;20047;-74
2022/05/31 10:52:31;;;;;;;2.00;1.20;;;21.20;47.70;;;;;;5044886;28;20033;-74
2022/05/31 10:55:39;;;;;;;1.85;1.00;;;21.10;47.80;;;;;;5039828;28;20045;-75
2022/05/31 10:58:35;;;;;;;1.95;1.52;;;21.80;49.10;;;;;;5034844;28;20052;-75
2022/05/31 11:01:13;;;;;;;2.28;1.50;;;22.30;47.10;;;;;;5036195;28;20029;-75
2022/05/31 11:04:08;;;;;;;2.05;1.15;;;22.30;47.20;;;;;;5035724;28;20040;-76
2022/05/31 11:06:46;;;;;;;1.55;0.90;;;22.10;45.80;;;;;;5036228;28;20053;-75
2022/05/31 11:13:05;;;;;;;2.35;1.05;;;22.10;46.00;;;;;;5045145;28;20504;-75
2022/05/31 11:15:51;;;;;;;5.75;0.57;;;22.50;45.80;;;;;;5044683;28;20044;-75
2022/05/31 11:18:25;;;;;;;0.80;0.60;;;22.50;43.00;;;;;;5025535;28;20041;-74
2022/05/31 11:20:55;;;;;;;5.20;0.93;;;22.70;40.10;;;;;;5035683;28;20033;-75
2022/05/31 11:23:39;;;;;;;3.33;0.93;;;22.30;42.10;;;;;;5045090;28;20493;-75
2022/05/31 11:26:08;;;;;;;1.83;1.13;;;22.40;43.00;;;;;;5040963;28;20033;-75
2022/05/31 11:29:01;;;;;;;2.40;1.00;;;23.00;43.60;;;;;;5046033;28;20067;-75
2022/05/31 11:32:09;;;;;;;2.15;1.27;;;23.00;42.10;;;;;;5036368;28;20029;-75
2022/05/31 11:34:53;;;;;;;1.88;1.10;;;22.60;42.80;;;;;;5036361;28;20056;-75
2022/05/31 11:37:45;;;;;;;1.90;1.42;;;22.30;43.70;;;;;;5035733;28;20029;-75
2022/05/31 11:40:14;;;;;;;1.48;0.85;;;22.10;43.90;;;;;;5035711;28;20040;-75
2022/05/31 11:42:43;;;;;;;1.23;1.00;;;22.40;43.40;;;;;;5037354;28;20406;-75
2022/05/31 11:45:43;;;;;;;1.05;0.70;;;22.30;42.50;;;;;;5037952;28;20048;-74
2022/05/31 11:48:34;;;;;;;1.95;0.93;;;21.80;42.80;;;;;;5034885;28;20025;-73
2022/05/31 11:51:27;;;;;;;2.83;0.98;;;21.80;44.00;;;;;;5035976;28;20037;-73
2022/05/31 11:54:29;;;;;;;2.20;0.75;;;22.10;42.30;;;;;;5058812;28;20045;-73
2022/05/31 11:57:15;;;;;;;0.52;0.50;;;22.10;43.90;;;;;;5034002;28;20040;-73
2022/05/31 12:00:01;;;;;;;1.02;0.60;;;21.90;44.10;;;;;;5039985;28;20367;-74
2022/05/31 12:02:38;;;;;;;2.97;0.77;;;22.60;42.90;;;;;;5039589;28;20045;-73
2022/05/31 12:05:20;;;;;;;2.05;0.75;;;23.00;41.70;;;;;;5038454;28;20044;-73
2022/05/31 12:08:15;;;;;;;1.10;0.98;;;22.80;40.50;;;;;;5046614;28;20021;-75
2022/05/31 12:10:46;;;;;;;0.70;0.50;;;22.80;41.30;;;;;;5034435;28;20053;-75
2022/05/31 12:13:15;;;;;;;1.25;0.60;;;22.90;42.20;;;;;;5048715;28;20470;-75
2022/05/31 12:15:44;;;;;;;2.20;0.77;;;23.60;41.50;;;;;;5052317;28;20040;-75
2022/05/31 12:18:27;;;;;;;1.52;0.75;;;24.00;40.20;;;;;;5035635;28;20037;-75
2022/05/31 12:21:10;;;;;;;0.73;0.43;;;24.60;40.20;;;;;;5033724;28;20047;-75
2022/05/31 12:23:52;;;;;;;1.45;0.98;;;24.10;39.80;;;;;;5034590;28;20032;-75
2022/05/31 12:26:37;;;;;;;4.53;0.82;;;24.20;39.70;;;;;;5034293;28;20048;-76
2022/05/31 12:29:06;;;;;;;1.15;0.60;;;23.60;39.20;;;;;;5034680;28;20037;-74
2022/05/31 12:31:35;;;;;;;1.02;0.70;;;23.40;39.60;;;;;;5043180;28;20033;-74
2022/05/31 12:34:20;;;;;;;1.40;0.65;;;23.20;40.00;;;;;;5037150;28;20033;-74
2022/05/31 12:37:09;;;;;;;3.70;0.55;;;23.20;40.60;;;;;;5047998;28;20044;-75
2022/05/31 12:39:37;;;;;;;1.30;0.80;;;23.50;40.00;;;;;;5045369;28;20497;-74
2022/05/31 12:42:12;;;;;;;0.88;0.45;;;23.50;40.10;;;;;;5034761;28;20041;-74
2022/05/31 12:44:43;;;;;;;3.25;0.88;;;23.50;39.90;;;;;;5033951;28;20034;-74
2022/05/31 12:47:27;;;;;;;0.50;0.40;;;23.50;39.60;;;;;;5032749;28;20045;-75
2022/05/31 12:50:04;;;;;;;1.23;0.68;;;23.60;40.00;;;;;;5035844;28;20033;-74
2022/05/31 12:55:36;;;;;;;2.55;0.82;;;23.90;39.60;;;;;;5034402;28;20052;-74
2022/05/31 13:00:53;;;;;;;0.70;0.40;;;23.60;38.40;;;;;;5037541;28;20045;-74
2022/05/31 13:03:34;;;;;;;2.15;0.77;;;23.70;39.20;;;;;;5044477;28;20401;-73
2022/05/31 13:06:34;;;;;;;2.38;0.75;;;23.70;39.50;;;;;;5032396;28;20041;-73
2022/05/31 13:09:03;;;;;;;;;;;23.70;39.20;;;;;;5034009;28;20049;-74
2022/05/31 13:20:31;;;;;;;3.50;1.10;;;24.30;39.00;;;;;;5034752;28;20032;-73
2022/05/31 13:23:27;;;;;;;0.80;0.70;;;24.80;37.50;;;;;;5032966;28;20040;-73
2022/05/31 13:25:58;;;;;;;0.77;0.60;;;25.00;37.20;;;;;;5036271;28;20045;-73
2022/05/31 13:28:52;;;;;;;1.48;0.75;;;24.90;38.20;;;;;;5035611;28;20029;-73
2022/05/31 13:31:21;;;;;;;1.05;0.70;;;24.90;38.50;;;;;;5033402;28;20034;-74
2022/05/31 13:34:02;;;;;;;0.80;0.50;;;25.10;38.90;;;;;;5046332;28;20059;-74
2022/05/31 13:36:32;;;;;;;1.48;0.80;;;25.50;39.40;;;;;;5031931;28;20033;-75
2022/05/31 13:39:08;;;;;;;3.13;0.70;;;25.00;38.60;;;;;;5033027;28;20029;-74
2022/05/31 13:41:52;;;;;;;0.93;0.60;;;25.10;38.50;;;;;;5034245;28;20052;-73
2022/05/31 13:44:35;;;;;;;1.15;0.80;;;25.40;37.30;;;;;;5043576;28;20045;-73
2022/05/31 13:47:05;;;;;;;1.10;1.00;;;25.50;37.10;;;;;;5032336;28;20041;-72
2022/05/31 13:49:38;;;;;;;1.73;1.00;;;25.60;37.00;;;;;;5050952;28;20029;-73
2022/05/31 13:52:17;;;;;;;1.20;0.68;;;25.20;37.60;;;;;;5033117;28;20036;-72
2022/05/31 13:54:44;;;;;;;0.95;0.45;;;25.40;37.50;;;;;;5045823;28;20028;-73
2022/05/31 13:57:13;;;;;;;6.55;1.02;;;25.20;37.60;;;;;;5035958;28;20029;-72
2022/05/31 13:59:57;;;;;;;2.28;0.57;;;24.90;37.00;;;;;;5033002;28;20042;-75
2022/05/31 14:02:48;;;;;;;0.65;0.60;;;24.20;36.40;;;;;;5035897;28;20044;-73
2022/05/31 14:05:33;;;;;;;0.90;0.65;;;24.30;38.30;;;;;;5036707;28;20025;-73
2022/05/31 14:08:00;;;;;;;1.50;0.60;;;25.20;37.80;;;;;;5046438;28;20299;-73
2022/05/31 14:10:29;;;;;;;1.60;0.50;;;25.60;37.60;;;;;;5033067;28;20056;-72
2022/05/31 14:13:00;;;;;;;1.75;0.55;;;25.60;36.00;;;;;;5031311;28;20137;-73
2022/05/31 14:15:29;;;;;;;0.43;0.40;;;25.10;36.90;;;;;;5032660;28;20444;-72
2022/05/31 14:18:13;;;;;;;1.73;0.60;;;25.10;36.60;;;;;;5031221;28;20471;-73